createdAt,value
2023-05-07T00:00:40.681Z,0
2023-05-07T00:04:06.180Z,0
2023-05-07T00:07:31.096Z,0
2023-05-07T00:10:56.364Z,0
2023-05-07T00:14:21.591Z,0
2023-05-07T00:17:46.824Z,0
2023-05-07T00:21:12.115Z,0
2023-05-07T00:24:37.221Z,0
2023-05-07T00:28:02.968Z,0
2023-05-07T00:31:27.689Z,0
2023-05-07T00:34:52.875Z,0
2023-05-07T00:38:18.417Z,0
2023-05-07T00:41:43.557Z,0
2023-05-07T00:45:08.751Z,0
2023-05-07T00:48:33.932Z,0
2023-05-07T00:51:59.182Z,0
2023-05-07T00:55:24.431Z,0
2023-05-07T00:58:49.661Z,0
2023-05-07T01:02:14.852Z,0
2023-05-07T01:05:40.083Z,0
2023-05-07T01:09:05.269Z,0
2023-05-07T01:12:30.566Z,0
2023-05-07T01:15:55.682Z,0
2023-05-07T01:19:20.897Z,0
2023-05-07T01:22:46.122Z,0
2023-05-07T01:26:11.320Z,0
2023-05-07T01:29:36.665Z,0
2023-05-07T01:33:01.825Z,0
2023-05-07T01:36:27.005Z,0
2023-05-07T01:39:52.189Z,0
2023-05-07T01:43:17.392Z,0
2023-05-07T01:46:42.668Z,0
2023-05-07T01:50:07.869Z,0
2023-05-07T01:53:33.066Z,0
2023-05-07T01:56:58.247Z,0
2023-05-07T02:00:23.484Z,0
2023-05-07T02:03:48.833Z,0
2023-05-07T02:07:14.240Z,0
2023-05-07T02:10:39.420Z,0
2023-05-07T02:14:04.623Z,0
2023-05-07T02:17:29.851Z,0
2023-05-07T02:20:55.099Z,0
2023-05-07T02:24:20.210Z,0
2023-05-07T02:27:45.423Z,0
2023-05-07T02:31:10.631Z,0
2023-05-07T02:34:35.827Z,0
2023-05-07T02:38:01.083Z,0
2023-05-07T02:41:26.276Z,0
2023-05-07T02:44:51.478Z,0
2023-05-07T02:48:16.657Z,0
2023-05-07T02:51:41.862Z,0
2023-05-07T02:55:07.167Z,0
2023-05-07T02:58:32.323Z,0
2023-05-07T03:01:57.507Z,0
2023-05-07T03:05:22.686Z,0
2023-05-07T03:08:47.906Z,0
2023-05-07T03:12:13.200Z,0
2023-05-07T03:15:38.354Z,0
2023-05-07T03:19:03.551Z,0
2023-05-07T03:22:28.737Z,0
2023-05-07T03:25:53.941Z,0
2023-05-07T03:29:19.189Z,0
2023-05-07T03:32:44.400Z,0
2023-05-07T03:36:09.566Z,0
2023-05-07T03:39:34.758Z,0
2023-05-07T03:42:59.968Z,0
2023-05-07T03:46:25.256Z,0
2023-05-07T03:49:50.338Z,0
2023-05-07T03:53:15.532Z,0
2023-05-07T03:56:40.748Z,0
2023-05-07T04:00:05.932Z,0
2023-05-07T04:03:31.242Z,0
2023-05-07T04:06:56.292Z,0
2023-05-07T04:10:21.491Z,0
2023-05-07T04:13:46.654Z,0
2023-05-07T04:17:11.827Z,0
2023-05-07T04:20:37.077Z,0
2023-05-07T04:24:02.269Z,0
2023-05-07T04:27:27.495Z,0
2023-05-07T04:30:52.696Z,0
2023-05-07T04:34:17.876Z,0
2023-05-07T04:37:43.240Z,0
2023-05-07T04:41:08.256Z,0
2023-05-07T04:44:33.406Z,0
2023-05-07T04:47:58.680Z,0
2023-05-07T04:51:23.833Z,0
2023-05-07T04:54:49.054Z,0
2023-05-07T04:58:14.191Z,0
2023-05-07T05:01:39.433Z,0
2023-05-07T05:05:04.592Z,0
2023-05-07T05:08:29.791Z,0
2023-05-07T05:11:55.037Z,0
2023-05-07T05:15:20.123Z,0
2023-05-07T05:18:45.293Z,0
2023-05-07T05:22:10.481Z,0
2023-05-07T05:25:35.653Z,0
2023-05-07T05:29:00.861Z,0
2023-05-07T05:32:26.008Z,6
2023-05-07T05:35:51.177Z,6
2023-05-07T05:39:16.384Z,0
2023-05-07T05:42:41.558Z,6
2023-05-07T05:46:06.850Z,6
2023-05-07T05:49:31.964Z,6
2023-05-07T05:52:57.209Z,6
2023-05-07T05:56:22.424Z,6
2023-05-07T05:59:47.579Z,6
2023-05-07T06:06:37.998Z,6
2023-05-07T06:10:03.182Z,6
2023-05-07T06:13:28.457Z,6
2023-05-07T06:16:53.598Z,6
2023-05-07T06:20:18.795Z,6
2023-05-07T06:23:43.974Z,6
2023-05-07T06:27:09.162Z,11
2023-05-07T06:30:34.359Z,11
2023-05-07T06:33:59.481Z,11
2023-05-07T06:37:24.679Z,11
2023-05-07T06:40:49.803Z,11
2023-05-07T06:44:14.965Z,11
2023-05-07T06:47:40.156Z,11
2023-05-07T06:51:05.282Z,17
2023-05-07T06:54:30.518Z,17
2023-05-07T06:57:55.552Z,11
2023-05-07T07:01:20.703Z,11
2023-05-07T07:04:45.822Z,17
2023-05-07T07:08:10.947Z,17
2023-05-07T07:11:36.194Z,17
2023-05-07T07:15:01.969Z,17
2023-05-07T07:18:27.103Z,17
2023-05-07T07:21:52.245Z,17
2023-05-07T07:25:17.394Z,17
2023-05-07T07:28:44.619Z,17
2023-05-07T07:32:07.771Z,23
2023-05-07T07:35:32.959Z,23
2023-05-07T07:38:58.144Z,23
2023-05-07T07:42:23.353Z,34
2023-05-07T07:45:48.723Z,34
2023-05-07T07:49:13.664Z,39
2023-05-07T07:52:38.914Z,45
2023-05-07T07:59:29.370Z,51
2023-05-07T08:02:54.829Z,51
2023-05-07T08:06:19.794Z,39
2023-05-07T08:09:45.010Z,51
2023-05-07T08:13:10.235Z,51
2023-05-07T08:16:35.466Z,51
2023-05-07T08:20:00.809Z,51
2023-05-07T08:23:25.942Z,51
2023-05-07T08:26:51.134Z,51
2023-05-07T08:30:16.335Z,51
2023-05-07T08:33:41.503Z,51
2023-05-07T08:37:06.735Z,51
2023-05-07T08:40:31.874Z,62
2023-05-07T08:43:57.135Z,62
2023-05-07T08:47:22.552Z,51
2023-05-07T08:50:47.482Z,56
2023-05-07T08:54:12.548Z,56
2023-05-07T08:57:40.016Z,62
2023-05-07T09:01:02.866Z,62
2023-05-07T09:04:28.082Z,51
2023-05-07T09:07:54.578Z,51
2023-05-07T09:11:18.598Z,56
2023-05-07T09:14:43.712Z,51
2023-05-07T09:18:08.993Z,56
2023-05-07T09:21:34.191Z,62
2023-05-07T09:24:59.416Z,62
2023-05-07T09:28:24.767Z,62
2023-05-07T09:31:49.919Z,68
2023-05-07T09:35:15.140Z,56
2023-05-07T09:38:40.342Z,62
2023-05-07T09:42:05.665Z,90
2023-05-07T09:45:31.115Z,107
2023-05-07T09:48:56.175Z,79
2023-05-07T09:52:21.458Z,135
2023-05-07T09:55:46.676Z,124
2023-05-07T09:59:11.917Z,113
2023-05-07T10:02:37.415Z,84
2023-05-07T10:06:02.384Z,101
2023-05-07T10:09:27.611Z,56
2023-05-07T10:12:52.925Z,68
2023-05-07T10:16:18.187Z,107
2023-05-07T10:19:43.552Z,68
2023-05-07T10:23:08.670Z,107
2023-05-07T10:26:33.932Z,113
2023-05-07T10:29:59.133Z,118
2023-05-07T10:33:24.336Z,101
2023-05-07T10:36:49.747Z,113
2023-05-07T10:40:14.949Z,113
2023-05-07T10:43:40.282Z,113
2023-05-07T10:47:05.482Z,113
2023-05-07T10:50:30.717Z,107
2023-05-07T10:53:56.020Z,68
2023-05-07T10:57:21.159Z,96
2023-05-07T11:00:46.437Z,96
2023-05-07T11:04:11.685Z,90
2023-05-07T11:07:36.908Z,79
2023-05-07T11:11:02.171Z,124
2023-05-07T11:14:27.356Z,113
2023-05-07T11:17:52.597Z,96
2023-05-07T11:21:17.793Z,79
2023-05-07T11:24:43.065Z,101
2023-05-07T11:28:08.647Z,113
2023-05-07T11:31:33.818Z,107
2023-05-07T11:34:59.861Z,107
2023-05-07T11:38:25.097Z,107
2023-05-07T11:41:51.592Z,96
2023-05-07T11:45:15.651Z,90
2023-05-07T11:48:40.839Z,68
2023-05-07T11:52:06.739Z,73
2023-05-07T11:55:31.263Z,79
2023-05-07T11:58:56.497Z,84
2023-05-07T12:02:21.818Z,79
2023-05-07T12:05:46.961Z,79
2023-05-07T12:09:12.188Z,73
2023-05-07T12:12:37.434Z,96
2023-05-07T12:16:02.593Z,84
2023-05-07T12:19:27.832Z,107
2023-05-07T12:22:53.039Z,79
2023-05-07T12:26:18.215Z,68
2023-05-07T12:29:43.429Z,96
2023-05-07T12:33:08.693Z,96
2023-05-07T12:36:33.924Z,79
2023-05-07T12:39:59.127Z,84
2023-05-07T12:43:24.394Z,90
2023-05-07T12:46:49.784Z,90
2023-05-07T12:50:14.985Z,90
2023-05-07T12:53:40.238Z,90
2023-05-07T12:57:05.456Z,68
2023-05-07T13:00:30.708Z,62
2023-05-07T13:03:56.039Z,68
2023-05-07T13:07:21.271Z,68
2023-05-07T13:10:46.524Z,79
2023-05-07T13:14:11.757Z,79
2023-05-07T13:17:37.019Z,79
2023-05-07T13:21:02.266Z,73
2023-05-07T13:24:27.574Z,62
2023-05-07T13:27:59.714Z,73
2023-05-07T13:31:18.066Z,62
2023-05-07T13:34:43.206Z,73
2023-05-07T13:38:08.431Z,68
2023-05-07T13:41:33.645Z,56
2023-05-07T13:44:58.944Z,51
2023-05-07T13:48:24.234Z,51
2023-05-07T13:51:49.463Z,45
2023-05-07T13:55:14.662Z,39
2023-05-07T13:58:48.521Z,45
2023-05-07T14:02:05.111Z,45
2023-05-07T14:05:30.197Z,39
2023-05-07T14:08:55.386Z,51
2023-05-07T14:12:20.609Z,68
2023-05-07T14:15:45.746Z,45
2023-05-07T14:19:10.924Z,51
2023-05-07T14:22:36.063Z,56
2023-05-07T14:26:01.213Z,56
2023-05-07T14:29:26.405Z,51
2023-05-07T14:32:51.606Z,51
2023-05-07T14:36:16.740Z,45
2023-05-07T14:39:41.889Z,39
2023-05-07T14:43:07.102Z,56
2023-05-07T14:46:32.337Z,39
2023-05-07T14:49:57.499Z,39
2023-05-07T14:53:22.816Z,39
2023-05-07T14:56:47.960Z,39
2023-05-07T15:00:13.169Z,45
2023-05-07T15:03:38.915Z,45
2023-05-07T15:07:03.982Z,39
2023-05-07T15:10:29.202Z,39
2023-05-07T15:46:59.310Z,11
2023-05-07T15:50:24.474Z,23
2023-05-07T15:53:49.705Z,23
2023-05-07T15:57:14.936Z,23
2023-05-07T16:00:40.165Z,17
2023-05-07T16:04:05.392Z,17
2023-05-07T16:07:30.561Z,17
2023-05-07T16:10:55.811Z,17
2023-05-07T16:14:20.899Z,17
2023-05-07T16:17:46.163Z,17
2023-05-07T16:21:11.314Z,23
2023-05-07T16:24:36.509Z,17
2023-05-07T16:28:01.718Z,17
2023-05-07T16:31:26.955Z,17
2023-05-07T16:34:52.062Z,11
2023-05-07T16:38:17.271Z,11
2023-05-07T16:41:42.447Z,11
2023-05-07T16:45:07.734Z,11
2023-05-07T16:48:32.928Z,11
2023-05-07T16:51:58.096Z,6
2023-05-07T16:55:23.294Z,6
2023-05-07T16:58:48.456Z,6
2023-05-07T17:02:13.646Z,11
2023-05-07T17:05:38.826Z,6
2023-05-07T17:09:04.076Z,6
2023-05-07T17:12:29.356Z,6
2023-05-07T17:15:54.558Z,6
2023-05-07T17:19:19.692Z,6
2023-05-07T17:22:44.957Z,6
2023-05-07T17:26:10.231Z,6
2023-05-07T17:29:35.507Z,6
2023-05-07T17:33:09.523Z,6
2023-05-07T17:36:25.900Z,6
2023-05-07T17:39:51.116Z,6
2023-05-07T17:43:16.358Z,6
2023-05-07T17:46:41.662Z,6
2023-05-07T17:50:06.855Z,6
2023-05-07T17:53:32.034Z,6
2023-05-07T17:56:57.264Z,0
2023-05-07T18:00:22.464Z,0
2023-05-07T18:03:47.865Z,0
2023-05-07T18:07:12.843Z,0
2023-05-07T18:10:38.090Z,0
2023-05-07T18:14:03.641Z,0
2023-05-07T18:17:28.855Z,0
2023-05-07T18:20:54.006Z,0
2023-05-07T18:24:19.089Z,0
2023-05-07T18:27:44.241Z,0
2023-05-07T18:31:09.384Z,0
2023-05-07T18:34:34.549Z,0
2023-05-07T18:37:59.749Z,0
2023-05-07T18:41:24.936Z,0
2023-05-07T18:44:50.073Z,0
2023-05-07T18:48:15.210Z,0
2023-05-07T18:51:40.393Z,0
2023-05-07T18:55:05.525Z,0
2023-05-07T18:58:30.665Z,0
2023-05-07T19:01:55.835Z,0
2023-05-07T19:05:21.005Z,0
2023-05-07T19:08:46.130Z,0
2023-05-07T19:12:11.319Z,0
2023-05-07T19:15:36.437Z,0
2023-05-07T19:19:01.585Z,0
2023-05-07T19:22:26.725Z,0
2023-05-07T19:25:51.837Z,0
2023-05-07T19:29:18.300Z,0
2023-05-07T19:32:42.159Z,0
2023-05-07T19:36:07.258Z,0
2023-05-07T19:39:32.416Z,0
2023-05-07T19:42:57.546Z,0
2023-05-07T19:46:22.753Z,0
2023-05-07T19:49:47.871Z,0
2023-05-07T19:53:13.027Z,0
2023-05-07T19:56:38.181Z,0
2023-05-07T20:00:03.355Z,0
2023-05-07T20:03:28.595Z,0
2023-05-07T20:06:53.614Z,0
2023-05-07T20:10:18.781Z,0
2023-05-07T20:13:43.957Z,0
2023-05-07T20:17:09.097Z,0
2023-05-07T20:20:34.285Z,0
2023-05-07T20:23:59.414Z,0
2023-05-07T20:27:24.579Z,0
2023-05-07T20:30:49.697Z,0
2023-05-07T20:34:14.860Z,0
2023-05-07T20:37:40.047Z,0
2023-05-07T20:41:05.167Z,0
2023-05-07T20:44:30.338Z,0
2023-05-07T20:47:55.583Z,0
2023-05-07T20:51:20.715Z,0
2023-05-07T20:54:45.860Z,0
2023-05-07T20:58:10.982Z,0
2023-05-07T21:01:36.191Z,0
2023-05-07T21:05:01.320Z,0
2023-05-07T21:08:26.481Z,0
2023-05-07T21:11:51.712Z,0
2023-05-07T21:15:16.823Z,0
2023-05-07T21:18:41.978Z,0
2023-05-07T21:22:07.161Z,0
2023-05-07T21:25:32.311Z,0
2023-05-07T21:28:57.518Z,0
2023-05-07T21:32:22.668Z,0
2023-05-07T21:35:47.790Z,0
2023-05-07T21:39:12.922Z,0
2023-05-07T21:42:38.067Z,0
2023-05-07T21:46:03.268Z,0
2023-05-07T21:49:28.384Z,0
2023-05-07T21:52:53.529Z,0
2023-05-07T21:56:18.701Z,0
2023-05-07T21:59:43.852Z,0
2023-05-07T22:03:09.109Z,0
2023-05-07T22:06:34.158Z,0
2023-05-07T22:09:59.310Z,0
2023-05-07T22:13:24.572Z,0
2023-05-07T22:16:49.703Z,0
2023-05-07T22:20:14.917Z,0
2023-05-07T22:23:39.887Z,0
2023-05-07T22:27:05.034Z,0
2023-05-07T22:30:30.207Z,0
2023-05-07T22:33:55.347Z,0
2023-05-07T22:37:20.519Z,0
2023-05-07T22:40:45.624Z,0
2023-05-07T22:44:10.782Z,0
2023-05-07T22:47:35.959Z,0
2023-05-07T22:51:01.089Z,0
2023-05-07T22:54:26.256Z,0
2023-05-07T22:57:51.414Z,0
2023-05-07T23:01:16.638Z,0
2023-05-07T23:04:41.729Z,0
2023-05-07T23:08:06.874Z,0
2023-05-07T23:11:32.060Z,0
2023-05-07T23:14:57.224Z,0
2023-05-07T23:18:22.380Z,0
2023-05-07T23:21:47.538Z,0
2023-05-07T23:25:12.883Z,0
2023-05-07T23:28:38.064Z,0
2023-05-07T23:32:03.200Z,0
2023-05-07T23:35:28.375Z,0
2023-05-07T23:38:53.602Z,0
2023-05-07T23:42:18.738Z,0
2023-05-07T23:45:43.961Z,0
2023-05-07T23:49:09.079Z,0
2023-05-07T23:52:34.251Z,0
2023-05-07T23:55:59.399Z,0
2023-05-07T23:59:24.546Z,0
